createdAt,value
2023-05-08T00:00:04.934Z,13.03
2023-05-08T00:03:14.305Z,13.23
2023-05-08T00:06:06.192Z,13.10
2023-05-08T00:08:55.834Z,13.33
2023-05-08T00:11:46.632Z,14.23
2023-05-08T00:14:36.257Z,14.47
2023-05-08T00:17:25.693Z,14.63
2023-05-08T00:20:15.609Z,14.33
2023-05-08T00:23:05.319Z,15.20
2023-05-08T00:25:54.666Z,14.63
2023-05-08T00:28:45.420Z,14.73
2023-05-08T00:31:34.790Z,13.60
2023-05-08T00:34:24.133Z,14.90
2023-05-08T00:37:13.423Z,16.10
2023-05-08T00:40:02.778Z,15.63
2023-05-08T00:42:52.182Z,16.97
2023-05-08T00:45:43.294Z,16.10
2023-05-08T00:48:36.158Z,15.50
2023-05-08T00:51:25.592Z,15.37
2023-05-08T00:54:15.729Z,15.10
2023-05-08T00:57:07.846Z,14.73
2023-05-08T00:59:57.761Z,15.40
2023-05-08T01:02:48.728Z,15.43
2023-05-08T01:05:38.230Z,16.03
2023-05-08T01:08:27.748Z,15.30
2023-05-08T01:11:30.623Z,16.40
2023-05-08T01:14:26.687Z,16.13
2023-05-08T01:17:24.411Z,16.13
2023-05-08T01:20:35.901Z,15.87
2023-05-08T01:24:12.612Z,15.93
2023-05-08T01:27:47.250Z,14.53
2023-05-08T01:31:13.467Z,15.50
2023-05-08T01:34:09.651Z,15.07
2023-05-08T01:37:04.256Z,15.70
2023-05-08T01:40:06.083Z,15.80
2023-05-08T01:43:06.856Z,15.67
2023-05-08T01:45:59.253Z,15.60
2023-05-08T01:48:53.879Z,15.40
2023-05-08T01:51:48.678Z,15.60
2023-05-08T01:54:48.582Z,15.57
2023-05-08T01:57:45.379Z,16.57
2023-05-08T02:00:34.779Z,15.60
2023-05-08T02:03:25.861Z,16.13
2023-05-08T02:06:21.975Z,15.50
2023-05-08T02:09:13.983Z,16.00
2023-05-08T02:12:05.060Z,15.53
2023-05-08T02:14:55.526Z,15.70
2023-05-08T02:17:47.807Z,15.57
2023-05-08T02:20:38.342Z,15.00
2023-05-08T02:23:29.664Z,15.50
2023-05-08T02:26:21.793Z,16.27
2023-05-08T02:29:11.819Z,16.80
2023-05-08T02:32:03.889Z,16.70
2023-05-08T02:35:02.428Z,16.97
2023-05-08T02:37:57.240Z,17.07
2023-05-08T02:40:51.088Z,16.77
2023-05-08T02:43:42.099Z,16.13
2023-05-08T02:46:47.486Z,16.27
2023-05-08T02:49:46.265Z,16.10
2023-05-08T02:52:43.245Z,16.40
2023-05-08T02:55:41.646Z,16.33
2023-05-08T02:58:45.960Z,15.57
2023-05-08T03:01:49.916Z,15.27
2023-05-08T03:04:51.450Z,15.97
2023-05-08T03:07:43.799Z,14.63
2023-05-08T03:10:36.556Z,14.33
2023-05-08T03:13:29.767Z,15.17
2023-05-08T03:16:25.818Z,14.90
2023-05-08T03:19:23.167Z,14.70
2023-05-08T03:22:14.530Z,15.00
2023-05-08T03:25:07.385Z,14.50
2023-05-08T03:27:59.636Z,14.77
2023-05-08T03:30:50.937Z,14.93
2023-05-08T03:33:44.502Z,14.57
2023-05-08T03:36:33.949Z,14.20
2023-05-08T03:39:23.996Z,14.27
2023-05-08T03:42:21.227Z,13.87
2023-05-08T03:45:13.110Z,13.90
2023-05-08T03:48:02.900Z,14.00
2023-05-08T03:50:55.257Z,13.43
2023-05-08T03:53:44.697Z,13.60
2023-05-08T03:56:35.800Z,14.57
2023-05-08T03:59:37.254Z,13.40
2023-05-08T04:02:35.545Z,13.70
2023-05-08T04:05:34.385Z,13.20
2023-05-08T04:08:30.645Z,13.43
2023-05-08T04:11:28.905Z,13.37
2023-05-08T04:14:22.658Z,12.87
2023-05-08T04:17:16.026Z,13.07
2023-05-08T04:20:12.224Z,13.70
2023-05-08T04:23:03.565Z,12.80
2023-05-08T04:25:57.061Z,13.90
2023-05-08T04:28:47.517Z,13.77
2023-05-08T04:31:38.502Z,13.57
2023-05-08T04:34:28.458Z,13.23
2023-05-08T04:37:28.257Z,13.60
2023-05-08T04:40:20.054Z,13.30
2023-05-08T04:43:11.050Z,13.20
2023-05-08T04:46:01.041Z,12.27
2023-05-08T04:48:50.427Z,12.37
2023-05-08T04:51:40.376Z,12.20
2023-05-08T04:54:29.978Z,12.63
2023-05-08T04:57:19.438Z,13.03
2023-05-08T05:00:12.189Z,12.03
2023-05-08T05:03:03.817Z,11.87
2023-05-08T05:05:59.936Z,12.20
2023-05-08T05:08:49.438Z,11.90
2023-05-08T05:11:38.837Z,12.07
2023-05-08T05:14:28.378Z,12.00
2023-05-08T05:17:19.094Z,12.53
2023-05-08T05:20:10.788Z,11.83
2023-05-08T05:23:00.157Z,11.93
2023-05-08T05:25:49.612Z,12.60
2023-05-08T05:28:39.167Z,11.53
2023-05-08T05:31:30.269Z,12.23
2023-05-08T05:34:21.524Z,12.43
2023-05-08T05:37:11.025Z,11.80
2023-05-08T05:40:00.752Z,12.30
2023-05-08T05:42:51.145Z,11.67
2023-05-08T05:45:41.349Z,11.63
2023-05-08T05:48:30.990Z,11.50
2023-05-08T05:51:21.837Z,11.60
2023-05-08T05:54:11.401Z,11.50
2023-05-08T05:57:01.097Z,14.33
2023-05-08T05:59:51.047Z,11.20
2023-05-08T06:02:41.782Z,11.30
2023-05-08T06:05:33.365Z,11.00
2023-05-08T06:08:24.089Z,11.40
2023-05-08T06:11:13.571Z,11.33
2023-05-08T06:14:02.936Z,11.90
2023-05-08T06:16:52.405Z,10.63
2023-05-08T06:19:41.767Z,10.87
2023-05-08T06:22:31.974Z,11.40
2023-05-08T06:25:22.824Z,10.87
2023-05-08T06:28:12.138Z,10.73
2023-05-08T06:31:01.902Z,10.53
2023-05-08T06:33:51.302Z,10.40
2023-05-08T06:36:40.845Z,10.40
2023-05-08T06:39:30.444Z,10.10
2023-05-08T06:42:21.208Z,10.20
2023-05-08T06:45:11.529Z,10.30
2023-05-08T06:48:01.315Z,10.37
2023-05-08T06:50:52.895Z,10.40
2023-05-08T06:53:42.246Z,10.17
2023-05-08T06:56:31.776Z,10.33
2023-05-08T06:59:24.145Z,10.20
2023-05-08T07:02:13.619Z,10.43
2023-05-08T07:05:03.292Z,10.10
2023-05-08T07:07:54.168Z,9.97
2023-05-08T07:10:43.437Z,10.40
2023-05-08T07:13:32.879Z,10.00
2023-05-08T07:16:23.704Z,9.90
2023-05-08T07:19:13.265Z,10.23
2023-05-08T07:22:02.729Z,10.00
2023-05-08T07:24:52.061Z,10.00
2023-05-08T07:27:41.490Z,9.90
2023-05-08T07:30:30.897Z,9.70
2023-05-08T07:33:21.617Z,9.93
2023-05-08T07:36:11.055Z,9.70
2023-05-08T07:39:00.383Z,9.93
2023-05-08T07:41:49.970Z,9.40
2023-05-08T07:44:50.990Z,9.60
2023-05-08T07:47:51.344Z,9.53
2023-05-08T07:50:42.128Z,9.63
2023-05-08T07:53:31.604Z,9.60
2023-05-08T07:56:21.900Z,9.60
2023-05-08T07:59:11.252Z,9.10
2023-05-08T08:02:00.604Z,9.80
2023-05-08T08:04:49.974Z,9.80
2023-05-08T08:07:40.722Z,9.70
2023-05-08T08:10:31.465Z,9.50
2023-05-08T08:13:21.052Z,9.70
2023-05-08T08:16:10.655Z,9.37
2023-05-08T08:19:00.021Z,9.40
2023-05-08T08:21:49.352Z,9.13
2023-05-08T08:24:40.062Z,9.20
2023-05-08T08:27:29.436Z,9.50
2023-05-08T08:30:19.112Z,9.50
2023-05-08T08:33:08.504Z,9.70
2023-05-08T08:35:57.817Z,9.40
2023-05-08T08:38:47.141Z,8.93
2023-05-08T08:41:40.538Z,9.30
2023-05-08T08:44:29.973Z,9.07
2023-05-08T08:47:24.391Z,9.23
2023-05-08T08:50:16.041Z,9.57
2023-05-08T08:53:12.453Z,9.20
2023-05-08T08:56:03.477Z,8.90
2023-05-08T08:58:59.305Z,8.93
2023-05-08T09:01:54.538Z,9.33
2023-05-08T09:04:43.903Z,9.40
2023-05-08T09:07:34.226Z,9.37
2023-05-08T09:10:25.707Z,9.40
2023-05-08T09:13:16.587Z,9.20
2023-05-08T09:16:08.708Z,8.87
2023-05-08T09:18:58.223Z,9.27
2023-05-08T09:21:47.694Z,8.90
2023-05-08T09:24:57.294Z,9.00
2023-05-08T09:27:46.841Z,8.80
2023-05-08T09:30:51.294Z,8.53
2023-05-08T09:33:46.512Z,8.53
2023-05-08T09:36:36.062Z,8.70
2023-05-08T09:39:27.139Z,9.10
2023-05-08T09:42:16.562Z,8.80
2023-05-08T09:45:07.466Z,11.43
2023-05-08T09:47:57.250Z,8.70
2023-05-08T09:50:48.100Z,8.90
2023-05-08T09:53:37.418Z,8.80
2023-05-08T09:56:37.844Z,9.17
2023-05-08T09:59:30.785Z,9.03
2023-05-08T10:02:21.463Z,8.60
2023-05-08T10:05:27.046Z,9.00
2023-05-08T10:08:22.975Z,8.83
2023-05-08T10:11:16.774Z,8.80
2023-05-08T10:14:06.103Z,8.90
2023-05-08T10:16:56.321Z,8.90
2023-05-08T10:19:49.751Z,9.33
2023-05-08T10:22:42.327Z,8.90
2023-05-08T10:25:36.435Z,8.50
2023-05-08T10:28:33.925Z,9.10
2023-05-08T10:31:26.474Z,8.90
2023-05-08T10:34:21.012Z,8.70
2023-05-08T10:37:11.895Z,8.90
2023-05-08T10:40:02.079Z,8.93
2023-05-08T10:42:53.640Z,8.73
2023-05-08T10:45:43.236Z,9.00
2023-05-08T10:48:46.504Z,8.87
2023-05-08T10:51:44.880Z,9.30
2023-05-08T10:54:52.710Z,9.13
2023-05-08T10:57:42.563Z,8.83
2023-05-08T11:01:14.486Z,9.07
2023-05-08T11:04:21.171Z,9.30
2023-05-08T11:07:11.526Z,9.37
2023-05-08T11:10:14.572Z,9.10
2023-05-08T11:13:05.647Z,9.50
2023-05-08T11:15:56.549Z,9.60
2023-05-08T11:19:17.920Z,9.47
2023-05-08T11:22:28.893Z,9.73
2023-05-08T11:25:19.267Z,9.40
2023-05-08T11:28:11.778Z,9.40
2023-05-08T11:31:07.027Z,9.90
2023-05-08T11:33:56.461Z,9.53
2023-05-08T11:37:02.889Z,9.77
2023-05-08T11:39:52.458Z,9.83
2023-05-08T11:42:41.961Z,9.80
2023-05-08T11:45:33.889Z,9.80
2023-05-08T11:48:24.628Z,10.10
2023-05-08T11:51:14.734Z,10.20
2023-05-08T11:54:04.781Z,9.83
2023-05-08T11:56:56.133Z,9.90
2023-05-08T11:59:45.747Z,10.13
2023-05-08T12:02:40.156Z,9.70
2023-05-08T12:05:31.016Z,12.73
2023-05-08T12:08:20.424Z,10.50
2023-05-08T12:11:10.501Z,10.10
2023-05-08T12:13:59.939Z,10.20
2023-05-08T12:16:49.305Z,10.00
2023-05-08T12:19:38.705Z,10.30
2023-05-08T12:22:29.389Z,9.83
2023-05-08T12:25:19.898Z,10.27
2023-05-08T12:28:09.750Z,10.00
2023-05-08T12:30:59.354Z,10.20
2023-05-08T12:33:49.418Z,10.23
2023-05-08T12:36:39.397Z,10.07
2023-05-08T12:39:30.063Z,10.10
2023-05-08T12:42:19.490Z,10.33
2023-05-08T12:45:10.298Z,11.37
2023-05-08T12:48:04.776Z,10.00
2023-05-08T12:50:54.369Z,10.90
2023-05-08T12:53:43.727Z,9.80
2023-05-08T12:56:34.380Z,10.30
2023-05-08T12:59:30.702Z,9.80
2023-05-08T13:02:23.675Z,10.03
2023-05-08T13:05:13.257Z,9.67
2023-05-08T13:08:03.570Z,9.90
2023-05-08T13:10:55.108Z,9.77
2023-05-08T13:13:45.768Z,10.73
2023-05-08T13:16:44.590Z,9.90
2023-05-08T13:19:33.928Z,10.30
2023-05-08T13:22:26.729Z,10.00
2023-05-08T13:25:16.425Z,10.03
2023-05-08T13:28:07.260Z,10.40
2023-05-08T13:30:57.967Z,10.20
2023-05-08T13:33:47.279Z,11.23
2023-05-08T13:36:36.904Z,9.90
2023-05-08T13:39:26.368Z,10.00
2023-05-08T13:42:15.677Z,10.03
2023-05-08T13:45:05.907Z,9.83
2023-05-08T13:47:56.835Z,10.30
2023-05-08T13:50:46.219Z,9.77
2023-05-08T13:53:35.441Z,9.90
2023-05-08T13:56:24.748Z,10.30
2023-05-08T13:59:14.095Z,9.63
2023-05-08T14:02:03.395Z,10.10
2023-05-08T14:04:54.124Z,9.90
2023-05-08T14:07:43.773Z,9.93
2023-05-08T14:10:33.074Z,9.90
2023-05-08T14:13:22.497Z,10.10
2023-05-08T14:16:14.377Z,10.00
2023-05-08T14:19:03.955Z,10.07
2023-05-08T14:21:54.696Z,10.10
2023-05-08T14:24:44.332Z,10.10
2023-05-08T14:27:33.702Z,10.00
2023-05-08T14:30:23.237Z,9.87
2023-05-08T14:33:12.698Z,9.97
2023-05-08T14:36:02.058Z,10.10
2023-05-08T14:38:52.796Z,10.37
2023-05-08T14:41:48.113Z,9.70
2023-05-08T14:44:49.330Z,10.20
2023-05-08T14:47:38.917Z,10.00
2023-05-08T14:50:28.380Z,10.07
2023-05-08T14:53:17.877Z,10.13
2023-05-08T14:56:09.651Z,9.90
2023-05-08T14:58:59.134Z,10.10
2023-05-08T15:01:48.620Z,10.00
2023-05-08T15:04:41.380Z,10.00
2023-05-08T15:07:30.702Z,9.80
2023-05-08T15:10:20.054Z,9.60
2023-05-08T15:13:10.805Z,9.73
2023-05-08T15:16:00.268Z,9.67
2023-05-08T15:18:49.630Z,9.60
2023-05-08T15:21:38.881Z,9.80
2023-05-08T15:24:28.177Z,9.80
2023-05-08T15:27:17.511Z,9.90
2023-05-08T15:30:10.217Z,9.93
2023-05-08T15:32:59.566Z,10.20
2023-05-08T15:35:48.968Z,10.00
2023-05-08T15:38:38.278Z,10.03
2023-05-08T15:41:27.587Z,9.80
2023-05-08T15:44:19.843Z,9.97
2023-05-08T15:47:10.444Z,10.00
2023-05-08T15:49:59.932Z,9.60
2023-05-08T15:52:49.360Z,9.57
2023-05-08T15:55:39.671Z,10.13
2023-05-08T15:58:29.051Z,10.13
2023-05-08T16:01:18.357Z,9.70
2023-05-08T16:04:09.197Z,9.93
2023-05-08T16:06:59.970Z,9.80
2023-05-08T16:09:49.215Z,10.10
2023-05-08T16:12:38.612Z,9.83
2023-05-08T16:15:28.022Z,10.07
2023-05-08T16:18:17.348Z,10.23
2023-05-08T16:21:11.838Z,9.70
2023-05-08T16:24:01.247Z,9.33
2023-05-08T16:26:50.865Z,10.07
2023-05-08T16:29:40.230Z,9.70
2023-05-08T16:32:29.558Z,9.70
2023-05-08T16:35:19.587Z,9.73
2023-05-08T16:38:10.427Z,9.60
2023-05-08T16:41:06.712Z,9.90
2023-05-08T16:43:56.079Z,10.00
2023-05-08T16:46:45.773Z,9.60
2023-05-08T16:49:35.115Z,9.70
2023-05-08T16:52:24.484Z,9.80
2023-05-08T16:55:15.440Z,9.90
2023-05-08T16:58:07.286Z,10.07
2023-05-08T17:00:56.727Z,9.80
2023-05-08T17:03:46.166Z,9.70
2023-05-08T17:06:35.453Z,9.83
2023-05-08T17:09:25.365Z,9.70
2023-05-08T17:12:16.089Z,9.80
2023-05-08T17:15:06.593Z,9.77
2023-05-08T17:17:56.401Z,9.80
2023-05-08T17:20:45.735Z,9.67
2023-05-08T17:23:35.048Z,9.53
2023-05-08T17:26:24.499Z,9.83
2023-05-08T17:29:15.203Z,9.87
2023-05-08T17:32:05.093Z,10.13
2023-05-08T17:34:54.520Z,9.80
2023-05-08T17:37:43.880Z,10.60
2023-05-08T17:40:33.567Z,10.27
2023-05-08T17:43:22.918Z,9.93
2023-05-08T17:46:13.848Z,10.07
2023-05-08T17:49:03.233Z,10.03
2023-05-08T17:51:52.586Z,10.23
2023-05-08T17:54:41.944Z,10.10
2023-05-08T17:57:31.312Z,10.73
2023-05-08T18:00:21.095Z,10.50
2023-05-08T18:03:12.249Z,10.50
2023-05-08T18:06:01.779Z,10.60
2023-05-08T18:08:51.131Z,11.30
2023-05-08T18:11:41.295Z,10.60
2023-05-08T18:14:32.186Z,11.00
2023-05-08T18:17:22.648Z,10.50
2023-05-08T18:20:15.120Z,10.83
2023-05-08T18:23:04.574Z,10.53
2023-05-08T18:25:53.858Z,10.77
2023-05-08T18:28:43.566Z,10.37
2023-05-08T18:31:32.969Z,10.10
2023-05-08T18:34:22.288Z,12.63
2023-05-08T18:37:13.095Z,10.20
2023-05-08T18:40:02.377Z,10.10
2023-05-08T18:42:51.735Z,10.10
2023-05-08T18:45:41.608Z,9.70
2023-05-08T18:48:30.921Z,12.17
2023-05-08T18:51:20.247Z,9.90
2023-05-08T18:54:10.945Z,10.00
2023-05-08T18:57:00.426Z,10.10
2023-05-08T18:59:50.404Z,10.00
2023-05-08T19:02:39.751Z,9.73
2023-05-08T19:05:29.096Z,9.93
2023-05-08T19:08:18.715Z,10.00
2023-05-08T19:11:10.259Z,10.50
2023-05-08T19:13:59.619Z,10.30
2023-05-08T19:16:48.963Z,10.40
2023-05-08T19:19:38.374Z,10.40
2023-05-08T19:22:27.796Z,10.60
2023-05-08T19:25:17.166Z,11.20
2023-05-08T19:28:07.999Z,10.33
2023-05-08T19:30:57.490Z,10.93
2023-05-08T19:33:47.301Z,10.70
2023-05-08T19:36:37.787Z,11.00
2023-05-08T19:39:27.343Z,10.57
2023-05-08T19:42:16.833Z,10.87
2023-05-08T19:45:09.144Z,11.20
2023-05-08T19:47:58.543Z,11.20
2023-05-08T19:50:47.961Z,10.90
2023-05-08T19:53:37.466Z,10.87
2023-05-08T19:56:26.854Z,10.50
2023-05-08T19:59:16.215Z,10.53
2023-05-08T20:02:07.558Z,10.90
2023-05-08T20:07:49.124Z,10.80
2023-05-08T20:10:38.558Z,10.60
2023-05-08T20:13:27.897Z,10.97
2023-05-08T20:16:17.317Z,10.73
2023-05-08T20:19:08.239Z,10.43
2023-05-08T20:21:57.617Z,10.50
2023-05-08T20:24:46.984Z,10.47
2023-05-08T20:27:36.391Z,11.20
2023-05-08T20:30:25.998Z,11.40
2023-05-08T20:33:15.401Z,11.40
2023-05-08T20:36:06.515Z,10.80
2023-05-08T20:38:55.921Z,10.53
2023-05-08T20:41:45.326Z,10.97
2023-05-08T20:44:34.694Z,10.90
2023-05-08T20:47:24.008Z,10.90
2023-05-08T20:50:13.794Z,10.60
2023-05-08T20:53:04.627Z,10.63
2023-05-08T20:56:01.946Z,10.57
2023-05-08T20:58:51.241Z,10.83
2023-05-08T21:01:40.625Z,10.80
2023-05-08T21:04:29.974Z,10.83
2023-05-08T21:07:19.417Z,10.77
2023-05-08T21:10:11.527Z,11.60
2023-05-08T21:13:01.098Z,11.20
2023-05-08T21:15:51.374Z,11.80
2023-05-08T21:18:40.728Z,11.20
2023-05-08T21:21:30.062Z,12.40
2023-05-08T21:24:19.375Z,11.50
2023-05-08T21:27:10.082Z,12.20
2023-05-08T21:29:59.486Z,11.97
2023-05-08T21:32:48.850Z,11.33
2023-05-08T21:35:38.374Z,11.80
2023-05-08T21:38:27.687Z,11.30
2023-05-08T21:41:16.977Z,11.83
2023-05-08T21:44:07.768Z,11.13
2023-05-08T21:46:57.108Z,11.20
2023-05-08T21:49:46.446Z,11.43
2023-05-08T21:52:35.798Z,11.50
2023-05-08T21:55:25.964Z,11.07
2023-05-08T21:58:15.207Z,11.77
2023-05-08T22:01:06.851Z,11.80
2023-05-08T22:03:56.336Z,11.80
2023-05-08T22:06:45.926Z,11.53
2023-05-08T22:09:36.175Z,11.03
2023-05-08T22:12:25.522Z,11.60
2023-05-08T22:15:28.395Z,11.50
2023-05-08T22:18:20.147Z,11.70
2023-05-08T22:21:09.448Z,11.97
2023-05-08T22:23:58.801Z,11.70
2023-05-08T22:26:48.169Z,11.30
2023-05-08T22:29:37.469Z,12.00
2023-05-08T22:32:26.922Z,11.20
2023-05-08T22:35:17.906Z,12.17
2023-05-08T22:38:07.262Z,12.30
2023-05-08T22:40:57.494Z,11.60
2023-05-08T22:43:46.938Z,14.10
2023-05-08T22:46:36.953Z,12.07
2023-05-08T22:49:26.456Z,11.60
2023-05-08T22:52:17.421Z,12.30
2023-05-08T22:55:08.793Z,11.80
2023-05-08T22:57:58.050Z,11.40
2023-05-08T23:00:47.352Z,12.17
2023-05-08T23:03:37.286Z,11.80
2023-05-08T23:06:26.822Z,11.80
2023-05-08T23:09:17.439Z,11.67
2023-05-08T23:12:07.834Z,11.50
2023-05-08T23:14:57.538Z,11.60
2023-05-08T23:17:46.891Z,11.77
2023-05-08T23:20:36.373Z,13.87
2023-05-08T23:23:25.710Z,11.40
2023-05-08T23:26:16.338Z,11.73
2023-05-08T23:29:05.582Z,11.20
2023-05-08T23:31:54.924Z,11.10
2023-05-08T23:34:44.367Z,12.00
2023-05-08T23:37:33.665Z,10.67
2023-05-08T23:40:23.250Z,10.90
2023-05-08T23:43:13.905Z,11.00
2023-05-08T23:46:03.388Z,11.10
2023-05-08T23:48:52.820Z,11.10
2023-05-08T23:51:42.153Z,11.90
2023-05-08T23:54:31.551Z,11.40
2023-05-08T23:57:20.820Z,11.43
